createdAt,value
2023-05-19T00:00:15.367Z,97394.13
2023-05-19T00:03:21.710Z,97395.44
2023-05-19T00:06:27.578Z,97379.19
2023-05-19T00:09:32.175Z,97384.41
2023-05-19T00:12:37.336Z,97374.59
2023-05-19T00:15:41.980Z,97373.00
2023-05-19T00:18:47.581Z,97371.09
2023-05-19T00:21:52.021Z,97375.06
2023-05-19T00:24:56.543Z,97375.84
2023-05-19T00:28:02.353Z,97362.88
2023-05-19T00:31:06.953Z,97367.59
2023-05-19T00:34:11.340Z,97371.06
2023-05-19T00:37:16.026Z,97375.50
2023-05-19T00:40:21.203Z,97373.69
2023-05-19T00:43:26.098Z,97368.50
2023-05-19T00:46:30.818Z,97364.63
2023-05-19T00:49:35.610Z,97366.75
2023-05-19T00:52:40.402Z,97354.78
2023-05-19T00:55:45.044Z,97362.84
2023-05-19T00:58:50.904Z,97355.28
2023-05-19T01:01:55.763Z,97352.53
2023-05-19T01:05:00.241Z,97350.88
2023-05-19T01:08:05.792Z,97349.38
2023-05-19T01:11:10.758Z,97354.81
2023-05-19T01:14:15.788Z,97352.00
2023-05-19T01:17:26.328Z,97350.75
2023-05-19T01:20:38.510Z,97352.78
2023-05-19T01:23:42.932Z,97352.31
2023-05-19T01:26:53.445Z,97339.75
2023-05-19T01:30:36.584Z,97345.88
2023-05-19T01:33:42.173Z,97348.03
2023-05-19T01:36:48.944Z,97343.97
2023-05-19T01:39:55.664Z,97347.88
2023-05-19T01:43:01.348Z,97347.16
2023-05-19T01:46:06.631Z,97346.09
2023-05-19T01:49:11.393Z,97338.13
2023-05-19T01:52:15.823Z,97339.22
2023-05-19T01:55:21.258Z,97339.19
2023-05-19T01:58:34.976Z,97341.22
2023-05-19T02:01:52.728Z,97331.59
2023-05-19T02:05:01.827Z,97333.56
2023-05-19T02:08:13.101Z,97338.50
2023-05-19T02:11:50.102Z,97332.25
2023-05-19T02:14:54.669Z,97333.13
2023-05-19T02:18:00.325Z,97332.34
2023-05-19T02:21:05.605Z,97330.91
2023-05-19T02:24:10.036Z,97336.06
2023-05-19T02:27:15.817Z,97327.88
2023-05-19T02:30:20.672Z,97334.00
2023-05-19T02:33:25.988Z,97326.44
2023-05-19T02:36:32.106Z,97317.78
2023-05-19T02:39:36.645Z,97322.56
2023-05-19T02:42:41.062Z,97322.75
2023-05-19T02:45:45.645Z,97310.09
2023-05-19T02:48:50.894Z,97294.78
2023-05-19T02:51:55.435Z,97305.28
2023-05-19T02:54:59.832Z,97298.22
2023-05-19T02:58:05.223Z,97296.94
2023-05-19T03:01:10.044Z,97299.16
2023-05-19T03:04:14.837Z,97282.34
2023-05-19T03:07:24.898Z,97301.25
2023-05-19T03:10:29.730Z,97299.25
2023-05-19T03:13:34.923Z,97304.00
2023-05-19T03:16:42.068Z,97301.91
2023-05-19T03:19:46.896Z,97305.16
2023-05-19T03:22:51.501Z,97306.34
2023-05-19T03:25:56.687Z,97309.09
2023-05-19T03:29:01.462Z,97304.38
2023-05-19T03:32:07.876Z,97303.00
2023-05-19T03:35:14.336Z,97304.78
2023-05-19T03:38:18.968Z,97314.50
2023-05-19T03:41:32.773Z,97315.88
2023-05-19T03:44:38.240Z,97313.84
2023-05-19T03:47:43.127Z,97323.31
2023-05-19T03:51:16.681Z,97321.03
2023-05-19T03:54:22.813Z,97320.53
2023-05-19T03:57:29.367Z,97321.72
2023-05-19T04:00:34.192Z,97314.06
2023-05-19T04:03:38.961Z,97318.19
2023-05-19T04:06:43.652Z,97312.50
2023-05-19T04:09:49.502Z,97317.88
2023-05-19T04:12:54.052Z,97311.25
2023-05-19T04:15:58.871Z,97315.09
2023-05-19T04:19:04.165Z,97317.63
2023-05-19T04:22:08.648Z,97304.88
2023-05-19T04:25:13.329Z,97310.13
2023-05-19T04:28:18.219Z,97306.09
2023-05-19T04:31:22.908Z,97311.28
2023-05-19T04:34:29.002Z,97313.28
2023-05-19T04:37:38.348Z,97315.81
2023-05-19T04:40:44.720Z,97313.19
2023-05-19T04:43:50.056Z,97312.25
2023-05-19T04:46:58.212Z,97310.94
2023-05-19T04:50:04.170Z,97308.91
2023-05-19T04:53:09.881Z,97305.16
2023-05-19T04:56:15.573Z,97307.78
2023-05-19T04:59:22.135Z,97302.56
2023-05-19T05:02:30.267Z,97301.88
2023-05-19T05:05:35.434Z,97302.38
2023-05-19T05:08:41.526Z,97307.56
2023-05-19T05:11:46.875Z,97298.53
2023-05-19T05:14:51.789Z,97301.19
2023-05-19T05:17:57.897Z,97300.78
2023-05-19T05:21:03.316Z,97296.31
2023-05-19T05:24:09.122Z,97292.44
2023-05-19T05:27:14.528Z,97293.63
2023-05-19T05:30:19.316Z,97289.56
2023-05-19T05:33:24.897Z,97291.84
2023-05-19T05:36:31.508Z,97298.88
2023-05-19T05:39:37.726Z,97285.91
2023-05-19T05:42:43.543Z,97297.41
2023-05-19T05:45:49.170Z,97293.94
2023-05-19T05:48:54.250Z,97292.97
2023-05-19T05:52:05.847Z,97272.31
2023-05-19T05:55:17.612Z,97294.78
2023-05-19T05:58:22.695Z,97291.47
2023-05-19T06:01:28.140Z,97296.47
2023-05-19T06:04:32.845Z,97288.22
2023-05-19T06:07:37.663Z,97295.78
2023-05-19T06:10:44.572Z,97290.09
2023-05-19T06:13:51.344Z,97293.00
2023-05-19T06:17:21.781Z,97287.22
2023-05-19T06:20:26.333Z,97283.59
2023-05-19T06:23:31.255Z,97281.69
2023-05-19T06:26:35.988Z,97274.00
2023-05-19T06:29:41.607Z,97282.44
2023-05-19T06:32:47.195Z,97277.97
2023-05-19T06:35:52.074Z,97272.06
2023-05-19T06:38:59.239Z,97277.00
2023-05-19T06:42:06.096Z,97284.78
2023-05-19T06:45:33.820Z,97278.59
2023-05-19T06:48:40.854Z,97283.13
2023-05-19T06:51:46.075Z,97275.22
2023-05-19T06:54:51.500Z,97274.56
2023-05-19T06:57:56.441Z,97272.16
2023-05-19T07:01:01.237Z,97273.66
2023-05-19T07:04:11.794Z,97275.50
2023-05-19T07:07:16.694Z,97270.00
2023-05-19T07:10:21.976Z,97272.13
2023-05-19T07:13:27.776Z,97272.31
2023-05-19T07:16:33.693Z,97268.56
2023-05-19T07:19:38.342Z,97262.03
2023-05-19T07:22:42.924Z,97258.03
2023-05-19T07:25:47.506Z,97268.53
2023-05-19T07:28:52.463Z,97260.03
2023-05-19T07:31:57.965Z,97259.00
2023-05-19T07:35:03.031Z,97251.84
2023-05-19T07:38:07.817Z,97254.69
2023-05-19T07:41:12.944Z,97255.94
2023-05-19T07:44:17.480Z,97261.00
2023-05-19T07:47:22.103Z,97254.00
2023-05-19T07:50:26.815Z,97257.97
2023-05-19T07:53:31.837Z,97242.31
2023-05-19T07:56:36.410Z,97243.56
2023-05-19T07:59:41.102Z,97234.13
2023-05-19T08:02:45.812Z,97240.94
2023-05-19T08:05:50.507Z,97246.91
2023-05-19T08:08:55.019Z,97242.75
2023-05-19T08:12:01.417Z,97246.47
2023-05-19T08:15:06.732Z,97236.53
2023-05-19T08:18:11.297Z,97237.81
2023-05-19T08:21:16.161Z,97239.72
2023-05-19T08:24:20.817Z,97238.25
2023-05-19T08:27:25.454Z,97233.75
2023-05-19T08:30:30.004Z,97237.75
2023-05-19T08:33:34.634Z,97225.13
2023-05-19T08:36:40.804Z,97226.34
2023-05-19T08:39:45.493Z,97228.38
2023-05-19T08:42:50.212Z,97218.44
2023-05-19T08:45:55.563Z,97209.03
2023-05-19T08:49:05.410Z,97216.28
2023-05-19T08:52:19.531Z,97212.41
2023-05-19T08:55:59.950Z,97212.84
2023-05-19T08:59:04.954Z,97201.78
2023-05-19T09:02:12.929Z,97199.75
2023-05-19T09:05:18.147Z,97203.41
2023-05-19T09:08:22.723Z,97195.03
2023-05-19T09:11:27.499Z,97195.59
2023-05-19T09:14:33.006Z,97196.91
2023-05-19T09:17:37.742Z,97198.56
2023-05-19T09:20:44.476Z,97197.59
2023-05-19T09:23:49.659Z,97194.50
2023-05-19T09:26:57.999Z,97186.91
2023-05-19T09:30:08.608Z,97184.81
2023-05-19T09:33:19.395Z,97181.28
2023-05-19T09:36:24.263Z,97166.81
2023-05-19T09:39:29.819Z,97180.44
2023-05-19T09:42:38.034Z,97166.53
2023-05-19T09:45:42.763Z,97166.03
2023-05-19T09:48:47.476Z,97161.88
2023-05-19T09:51:59.624Z,97163.06
2023-05-19T09:55:05.233Z,97157.22
2023-05-19T09:58:12.072Z,97152.81
2023-05-19T10:01:18.106Z,97145.91
2023-05-19T10:04:24.285Z,97136.00
2023-05-19T10:07:29.831Z,97134.88
2023-05-19T10:10:34.717Z,97131.94
2023-05-19T10:13:40.071Z,97119.47
2023-05-19T10:16:45.839Z,97115.13
2023-05-19T10:19:52.211Z,97117.50
2023-05-19T10:22:56.893Z,97130.13
2023-05-19T10:26:05.105Z,97114.50
2023-05-19T10:29:11.297Z,97112.13
2023-05-19T10:32:24.115Z,97114.38
2023-05-19T10:35:37.099Z,97115.06
2023-05-19T10:38:53.279Z,97106.06
2023-05-19T10:42:10.718Z,97104.50
2023-05-19T10:45:21.344Z,97108.94
2023-05-19T10:48:26.099Z,97106.16
2023-05-19T10:51:32.406Z,97103.31
2023-05-19T10:54:41.036Z,97107.19
2023-05-19T10:57:57.013Z,97106.50
2023-05-19T11:01:01.730Z,97107.34
2023-05-19T11:04:10.967Z,97102.69
2023-05-19T11:07:20.181Z,97106.84
2023-05-19T11:10:25.159Z,97105.72
2023-05-19T11:13:29.725Z,97101.69
2023-05-19T11:16:34.539Z,97093.69
2023-05-19T11:19:41.902Z,97087.81
2023-05-19T11:23:04.069Z,97094.06
2023-05-19T11:26:09.164Z,97093.41
2023-05-19T11:29:14.682Z,97089.25
2023-05-19T11:32:21.730Z,97089.59
2023-05-19T11:35:27.458Z,97088.56
2023-05-19T11:38:32.894Z,97086.84
2023-05-19T11:41:40.775Z,97081.41
2023-05-19T11:44:46.230Z,97085.06
2023-05-19T11:48:02.028Z,97086.75
2023-05-19T11:51:07.926Z,97074.06
2023-05-19T11:54:12.989Z,97085.03
2023-05-19T11:57:18.008Z,97085.47
2023-05-19T12:00:23.170Z,97076.22
2023-05-19T12:03:28.809Z,97069.38
2023-05-19T12:06:34.317Z,97078.78
2023-05-19T12:09:39.513Z,97066.16
2023-05-19T12:12:45.206Z,97072.94
2023-05-19T12:15:51.964Z,97088.03
2023-05-19T12:18:56.783Z,97071.69
2023-05-19T12:22:03.421Z,97074.81
2023-05-19T12:25:09.271Z,97086.22
2023-05-19T12:28:16.040Z,97067.88
2023-05-19T12:31:23.711Z,97087.03
2023-05-19T12:34:28.549Z,97079.75
2023-05-19T12:37:34.855Z,97077.94
2023-05-19T12:40:39.555Z,97082.31
2023-05-19T12:43:44.128Z,97073.97
2023-05-19T12:46:52.048Z,97070.41
2023-05-19T12:49:59.777Z,97074.06
2023-05-19T12:53:08.809Z,97065.09
2023-05-19T12:56:14.971Z,97067.06
2023-05-19T12:59:37.221Z,97056.72
2023-05-19T13:03:06.830Z,97050.00
2023-05-19T13:06:11.988Z,97050.78
2023-05-19T13:09:17.806Z,97041.72
2023-05-19T13:12:22.457Z,97048.94
2023-05-19T13:15:31.639Z,97040.19
2023-05-19T13:18:37.573Z,97039.19
2023-05-19T13:21:42.462Z,97046.78
2023-05-19T13:24:47.133Z,97035.53
2023-05-19T13:27:51.906Z,97038.72
2023-05-19T13:30:56.981Z,97029.47
2023-05-19T13:34:02.765Z,97032.72
2023-05-19T13:37:10.089Z,97031.00
2023-05-19T13:40:15.733Z,97021.00
2023-05-19T13:43:20.533Z,97021.38
2023-05-19T13:46:33.096Z,97013.94
2023-05-19T13:49:48.410Z,97013.28
2023-05-19T13:52:53.741Z,97006.16
2023-05-19T13:56:00.435Z,97010.19
2023-05-19T13:59:05.099Z,96997.78
2023-05-19T14:02:09.985Z,97009.63
2023-05-19T14:05:14.726Z,97009.94
2023-05-19T14:08:19.390Z,97002.81
2023-05-19T14:11:24.018Z,97005.69
2023-05-19T14:14:28.587Z,96997.34
2023-05-19T14:17:33.498Z,97010.66
2023-05-19T14:20:38.203Z,97012.41
2023-05-19T14:23:42.895Z,97009.22
2023-05-19T14:26:47.760Z,96998.41
2023-05-19T14:29:52.863Z,96987.13
2023-05-19T14:32:58.300Z,97000.84
2023-05-19T14:36:05.320Z,96998.88
2023-05-19T14:39:09.962Z,96995.78
2023-05-19T14:42:14.695Z,96997.19
2023-05-19T14:45:19.513Z,96988.88
2023-05-19T14:48:24.230Z,96996.19
2023-05-19T14:51:28.946Z,96991.25
2023-05-19T14:54:34.010Z,96991.44
2023-05-19T14:57:38.707Z,96990.94
2023-05-19T15:00:43.780Z,96992.38
2023-05-19T15:03:48.386Z,96993.56
2023-05-19T15:07:05.983Z,97003.28
2023-05-19T15:10:16.762Z,97001.31
2023-05-19T15:13:21.598Z,97005.69
2023-05-19T15:16:26.281Z,97009.50
2023-05-19T15:19:30.932Z,97011.78
2023-05-19T15:22:35.484Z,96998.16
2023-05-19T15:25:40.086Z,96987.88
2023-05-19T15:28:44.768Z,97000.00
2023-05-19T15:31:52.423Z,96998.88
2023-05-19T15:34:56.975Z,97012.75
2023-05-19T15:38:06.076Z,97009.63
2023-05-19T15:41:11.016Z,97008.25
2023-05-19T15:44:15.745Z,97008.69
2023-05-19T15:47:20.651Z,97014.06
2023-05-19T15:50:26.594Z,97002.88
2023-05-19T15:53:31.206Z,97009.44
2023-05-19T15:56:35.873Z,97009.09
2023-05-19T15:59:40.542Z,97014.41
2023-05-19T16:02:45.183Z,97005.66
2023-05-19T16:05:50.015Z,97015.13
2023-05-19T16:08:54.753Z,97019.88
2023-05-19T16:11:59.421Z,97013.97
2023-05-19T16:15:04.183Z,97000.81
2023-05-19T16:18:09.036Z,97011.00
2023-05-19T16:21:13.653Z,96997.63
2023-05-19T16:24:18.299Z,97017.97
2023-05-19T16:27:22.990Z,97023.22
2023-05-19T16:30:28.029Z,97008.47
2023-05-19T16:33:32.778Z,97001.72
2023-05-19T16:36:37.438Z,97001.03
2023-05-19T16:39:44.005Z,97000.28
2023-05-19T16:42:48.709Z,96992.94
2023-05-19T16:45:53.512Z,96982.88
2023-05-19T16:48:58.376Z,96991.25
2023-05-19T16:52:03.018Z,96990.91
2023-05-19T16:55:08.043Z,96986.34
2023-05-19T16:58:12.780Z,96967.69
2023-05-19T17:01:17.497Z,96975.44
2023-05-19T17:04:22.173Z,96973.13
2023-05-19T17:07:29.045Z,96978.94
2023-05-19T17:10:34.095Z,96973.31
2023-05-19T17:13:39.431Z,96962.66
2023-05-19T17:16:44.113Z,96974.44
2023-05-19T17:19:48.706Z,96971.16
2023-05-19T17:22:53.331Z,96981.94
2023-05-19T17:25:57.973Z,96973.00
2023-05-19T17:29:02.771Z,96987.03
2023-05-19T17:32:07.568Z,96979.97
2023-05-19T17:35:12.217Z,96987.09
2023-05-19T17:38:18.220Z,96985.06
2023-05-19T17:41:22.896Z,96986.16
2023-05-19T17:44:27.691Z,96990.88
2023-05-19T17:47:32.267Z,96983.22
2023-05-19T17:50:36.841Z,96986.66
2023-05-19T17:53:42.422Z,96979.91
2023-05-19T17:56:48.206Z,96986.56
2023-05-19T17:59:53.036Z,96991.06
2023-05-19T18:02:59.229Z,96989.41
2023-05-19T18:06:03.905Z,96986.28
2023-05-19T18:09:09.257Z,96992.13
2023-05-19T18:12:13.974Z,96992.53
2023-05-19T18:15:18.520Z,96988.25
2023-05-19T18:18:22.980Z,96988.53
2023-05-19T18:21:27.963Z,96984.63
2023-05-19T18:24:32.472Z,96987.97
2023-05-19T18:27:37.061Z,96993.09
2023-05-19T18:30:41.945Z,96993.41
2023-05-19T18:33:47.306Z,96994.78
2023-05-19T18:36:51.988Z,96991.25
2023-05-19T18:39:56.806Z,96987.31
2023-05-19T18:43:01.494Z,96987.41
2023-05-19T18:46:06.275Z,96980.22
2023-05-19T18:49:11.849Z,96986.75
2023-05-19T18:52:16.683Z,96984.72
2023-05-19T18:55:21.243Z,96988.25
2023-05-19T18:58:25.897Z,97001.91
2023-05-19T19:01:30.648Z,97012.91
2023-05-19T19:04:35.363Z,97009.03
2023-05-19T19:07:41.105Z,97014.16
2023-05-19T19:10:45.793Z,97018.31
2023-05-19T19:13:51.521Z,97011.69
2023-05-19T19:16:56.499Z,97019.28
2023-05-19T19:20:02.586Z,97020.47
2023-05-19T19:23:07.266Z,97017.81
2023-05-19T19:26:11.887Z,97023.75
2023-05-19T19:29:18.090Z,97024.03
2023-05-19T19:32:23.014Z,97028.72
2023-05-19T19:35:27.475Z,97037.03
2023-05-19T19:38:31.897Z,97043.28
2023-05-19T19:41:36.651Z,97037.34
2023-05-19T19:44:41.470Z,97039.25
2023-05-19T19:47:46.288Z,97044.19
2023-05-19T19:50:53.511Z,97038.25
2023-05-19T19:53:58.427Z,97040.66
2023-05-19T19:57:02.873Z,97049.72
2023-05-19T20:00:08.344Z,97045.41
2023-05-19T20:03:13.058Z,97044.72
2023-05-19T20:06:17.641Z,97031.09
2023-05-19T20:09:22.046Z,97038.78
2023-05-19T20:12:26.661Z,97036.50
2023-05-19T20:15:31.573Z,97035.38
2023-05-19T20:18:36.165Z,97033.44
2023-05-19T20:21:40.714Z,97031.66
2023-05-19T20:24:45.342Z,97031.16
2023-05-19T20:27:49.816Z,97025.22
2023-05-19T20:30:54.416Z,97024.97
2023-05-19T20:33:59.451Z,97031.09
2023-05-19T20:37:05.936Z,97022.00
2023-05-19T20:40:11.046Z,97012.84
2023-05-19T20:43:15.745Z,97024.47
2023-05-19T20:46:20.380Z,97022.31
2023-05-19T20:49:24.825Z,97016.16
2023-05-19T20:52:29.511Z,97011.09
2023-05-19T20:55:35.993Z,97008.84
2023-05-19T20:58:40.720Z,97013.63
2023-05-19T21:01:45.712Z,97005.22
2023-05-19T21:04:50.818Z,97019.78
2023-05-19T21:07:55.522Z,97025.22
2023-05-19T21:10:59.947Z,97023.66
2023-05-19T21:14:04.585Z,97024.84
2023-05-19T21:17:09.276Z,97023.88
2023-05-19T21:20:13.823Z,97024.75
2023-05-19T21:23:18.256Z,97025.16
2023-05-19T21:26:23.053Z,97014.56
2023-05-19T21:29:27.827Z,97022.06
2023-05-19T21:32:32.515Z,97016.06
2023-05-19T21:35:37.773Z,97006.34
2023-05-19T21:38:42.340Z,97019.22
2023-05-19T21:41:46.899Z,97018.19
2023-05-19T21:44:51.536Z,97018.81
2023-05-19T21:47:56.348Z,97019.81
2023-05-19T21:51:00.794Z,97015.50
2023-05-19T21:54:05.254Z,97018.94
2023-05-19T21:57:11.202Z,97021.63
2023-05-19T22:00:15.684Z,97010.34
2023-05-19T22:03:20.906Z,97009.34
2023-05-19T22:06:25.325Z,97007.31
2023-05-19T22:09:29.770Z,97006.47
2023-05-19T22:12:34.325Z,97003.72
2023-05-19T22:15:39.367Z,97005.97
2023-05-19T22:18:43.859Z,97011.31
2023-05-19T22:21:49.240Z,97009.47
2023-05-19T22:24:54.824Z,97008.19
2023-05-19T22:28:01.069Z,97008.03
2023-05-19T22:31:05.948Z,97009.63
2023-05-19T22:34:12.659Z,97013.94
2023-05-19T22:37:17.265Z,96997.81
2023-05-19T22:40:21.696Z,96992.38
2023-05-19T22:43:26.716Z,96997.78
2023-05-19T22:46:31.209Z,97000.53
2023-05-19T22:49:35.728Z,96999.81
2023-05-19T22:52:40.152Z,96992.84
2023-05-19T22:55:44.701Z,96992.00
2023-05-19T22:58:49.137Z,96993.06
2023-05-19T23:01:53.712Z,96988.38
2023-05-19T23:04:58.086Z,97003.13
2023-05-19T23:08:02.703Z,96995.88
2023-05-19T23:11:07.634Z,96993.59
2023-05-19T23:14:12.108Z,96992.84
2023-05-19T23:17:16.585Z,96983.53
2023-05-19T23:20:21.154Z,96980.19
2023-05-19T23:23:27.121Z,96971.69
2023-05-19T23:26:32.261Z,96957.78
2023-05-19T23:29:36.717Z,96953.91
2023-05-19T23:32:41.259Z,96949.03
2023-05-19T23:35:46.177Z,96958.19
2023-05-19T23:38:50.914Z,96961.38
2023-05-19T23:41:56.194Z,96955.91
2023-05-19T23:45:00.612Z,96944.06
2023-05-19T23:48:05.479Z,96958.78
2023-05-19T23:51:10.062Z,96953.78
2023-05-19T23:54:14.682Z,96958.97
2023-05-19T23:57:19.085Z,96956.59
